Time;durP1;ratioP1;P1;durP2;ratioP2;P2;SDS_P1;SDS_P2;PMS_P1;PMS_P2;Temp;Humidity;BMP_temperature;BMP_pressure;BME280_temperature;BME280_humidity;BME280_pressure;Samples;Min_cycle;Max_cycle;Signal;HPM_P1;HPM_P2
2023/03/19 04:56:35;;;;;;;;;;;27.70;73.10;;;;;;5049920;28;19936;-72
2023/03/19 04:59:01;;;;;;;;;;;27.70;73.70;;;;;;5045428;28;19974;-73
2023/03/19 05:01:28;;;;;;;;;;;27.70;73.90;;;;;;5051482;28;20376;-73
2023/03/19 05:03:55;;;;;;;;;;;27.70;74.10;;;;;;5056794;28;19912;-73
2023/03/19 05:06:23;;;;;;;;;;;27.70;74.20;;;;;;5051164;28;19924;-73
2023/03/19 05:08:49;;;;;;;;;;;27.70;74.50;;;;;;5048670;28;19935;-73
2023/03/19 05:11:16;;;;;;;;;;;27.70;74.40;;;;;;5047945;28;19960;-73
2023/03/19 05:13:43;;;;;;;;;;;27.60;74.70;;;;;;5048658;28;20007;-73
2023/03/19 05:16:10;;;;;;;;;;;27.60;74.30;;;;;;5046701;28;20467;-73
2023/03/19 05:18:36;;;;;;;;;;;27.70;73.70;;;;;;5043751;28;19909;-73
2023/03/19 05:21:03;;;;;;;;;;;27.60;74.00;;;;;;5047788;28;19915;-73
2023/03/19 05:23:30;;;;;;;;;;;27.60;73.20;;;;;;5047189;28;19916;-72
2023/03/19 05:26:00;;;;;;;;;;;27.60;73.30;;;;;;5045729;28;19944;-72
2023/03/19 05:28:27;;;;;;;;;;;27.60;73.00;;;;;;5052999;28;19909;-72
2023/03/19 05:30:54;;;;;;;;;;;27.70;72.50;;;;;;5052001;28;19916;-72
2023/03/19 05:33:21;;;;;;;;;;;27.60;72.70;;;;;;5053933;28;19934;-72
2023/03/19 05:35:48;;;;;;;;;;;27.70;72.70;;;;;;5052511;28;19913;-72
2023/03/19 05:38:15;;;;;;;;;;;27.70;72.80;;;;;;5052866;28;19915;-72
2023/03/19 05:40:41;;;;;;;;;;;27.70;72.50;;;;;;5052498;28;20063;-72
2023/03/19 05:43:09;;;;;;;;;;;27.70;71.90;;;;;;5054773;28;19920;-72
2023/03/19 05:45:36;;;;;;;;;;;27.70;71.80;;;;;;5053431;28;19919;-72
2023/03/19 05:48:03;;;;;;;;;;;27.70;71.70;;;;;;5055020;28;20360;-72
2023/03/19 05:50:30;;;;;;;;;;;27.70;71.10;;;;;;5051365;28;20456;-72
2023/03/19 05:52:57;;;;;;;;;;;27.70;70.60;;;;;;5053185;28;19970;-72
2023/03/19 06:30:46;;;;;;;;;;;27.60;72.00;;;;;;5064030;28;20034;-72
2023/03/19 06:33:13;;;;;;;;;;;27.50;72.50;;;;;;5071284;28;19943;-72
2023/03/19 06:35:40;;;;;;;;;;;27.50;72.50;;;;;;5073147;28;20003;-72
2023/03/19 06:38:07;;;;;;;;;;;27.40;72.20;;;;;;5078256;28;19948;-73
2023/03/19 06:40:34;;;;;;;;;;;27.40;72.00;;;;;;5065849;28;19977;-74
2023/03/19 06:43:00;;;;;;;;;;;27.40;71.90;;;;;;5065205;28;19916;-73
2023/03/19 06:45:27;;;;;;;;;;;27.30;71.90;;;;;;5067893;28;20371;-73
2023/03/19 06:47:54;;;;;;;;;;;27.30;72.20;;;;;;5072144;28;19915;-73
2023/03/19 06:50:21;;;;;;;;;;;27.30;72.40;;;;;;5070736;28;19909;-71
2023/03/19 06:52:47;;;;;;;;;;;27.30;72.70;;;;;;5073462;28;20520;-71
2023/03/19 06:55:14;;;;;;;;;;;27.30;72.90;;;;;;5073632;28;19909;-71
2023/03/19 06:57:41;;;;;;;;;;;27.30;72.40;;;;;;5072377;28;19912;-71
2023/03/19 07:00:10;;;;;;;;;;;27.30;71.80;;;;;;5072288;28;19917;-71
2023/03/19 07:02:36;;;;;;;;;;;27.30;72.30;;;;;;5073347;28;19913;-71
2023/03/19 07:05:04;;;;;;;;;;;27.30;72.20;;;;;;5073362;28;19931;-72
2023/03/19 07:07:31;;;;;;;;;;;27.20;72.50;;;;;;5073274;28;19995;-71
2023/03/19 07:09:57;;;;;;;;;;;27.20;72.40;;;;;;5073514;28;20281;-73
2023/03/19 07:12:26;;;;;;;;;;;27.20;72.60;;;;;;5073505;28;20370;-71
2023/03/19 07:14:55;;;;;;;;;;;27.20;73.10;;;;;;5073265;28;19912;-71
2023/03/19 07:17:22;;;;;;;;;;;27.10;73.10;;;;;;5071924;28;20273;-71
2023/03/19 07:19:49;;;;;;;;;;;27.10;72.80;;;;;;5063609;28;19978;-73
2023/03/19 07:22:15;;;;;;;;;;;27.10;73.90;;;;;;5072266;28;19912;-73
2023/03/19 07:24:42;;;;;;;;;;;27.00;74.00;;;;;;5073092;28;19908;-73
2023/03/19 07:27:09;;;;;;;;;;;27.10;74.40;;;;;;5073400;28;20351;-73
2023/03/19 07:29:36;;;;;;;;;;;26.90;74.30;;;;;;5073659;28;19913;-74
2023/03/19 11:10:43;;;;;;;;;;;24.50;89.80;;;;;;5058769;28;19928;-69
2023/03/19 11:13:21;;;;;;;;;;;24.50;89.70;;;;;;5052624;28;19921;-68
2023/03/19 11:15:48;;;;;;;;;;;24.50;90.00;;;;;;5051911;28;19963;-69
2023/03/19 11:18:19;;;;;;;;;;;24.50;90.10;;;;;;5053537;28;19913;-68
2023/03/19 11:21:05;;;;;;;;;;;24.30;90.20;;;;;;5066179;28;19964;-69
2023/03/19 11:23:37;;;;;;;;;;;24.30;90.30;;;;;;5053626;28;20003;-69
2023/03/19 11:26:04;;;;;;;;;;;24.40;90.40;;;;;;5054644;28;20389;-69
2023/03/19 11:28:33;;;;;;;;;;;24.30;90.40;;;;;;5053483;28;19913;-69
2023/03/19 11:31:27;;;;;;;;;;;24.30;90.30;;;;;;5053790;28;19909;-68
2023/03/19 11:34:08;;;;;;;;;;;24.30;90.30;;;;;;5052993;28;19935;-69
2023/03/19 11:36:50;;;;;;;;;;;24.30;90.30;;;;;;5069160;28;20015;-69
2023/03/19 11:39:27;;;;;;;;;;;24.30;90.20;;;;;;5052393;28;20019;-70
2023/03/19 11:42:04;;;;;;;;;;;24.30;90.10;;;;;;5069807;28;19966;-69
2023/03/19 11:44:37;;;;;;;;;;;24.30;90.10;;;;;;5070248;28;19913;-69
2023/03/19 11:47:10;;;;;;;;;;;24.30;90.10;;;;;;5054726;28;20371;-69
2023/03/19 11:49:47;;;;;;;;;;;24.30;90.00;;;;;;5058193;28;20381;-69
2023/03/19 11:52:31;;;;;;;;;;;24.40;89.90;;;;;;5066322;28;19963;-69
2023/03/19 11:55:01;;;;;;;;;;;24.30;89.80;;;;;;5068423;28;19920;-70
2023/03/19 11:57:28;;;;;;;;;;;24.30;89.90;;;;;;5072297;28;20417;-69
2023/03/19 12:00:15;;;;;;;;;;;24.30;89.90;;;;;;5070518;28;19920;-70
2023/03/19 12:02:50;;;;;;;;;;;24.30;89.80;;;;;;5070736;28;19966;-70
2023/03/19 12:05:33;;;;;;;;;;;24.30;89.60;;;;;;5059409;28;19916;-69
2023/03/19 12:08:06;;;;;;;;;;;24.30;89.70;;;;;;5064919;28;19912;-69
2023/03/19 20:39:30;;;;;;;;;;;23.90;86.50;;;;;;5051328;28;20455;-71
2023/03/19 20:41:56;;;;;;;;;;;23.90;85.90;;;;;;5047038;28;20413;-71
2023/03/19 20:44:23;;;;;;;;;;;24.00;85.90;;;;;;5049015;28;19909;-71
2023/03/19 20:46:50;;;;;;;;;;;24.00;86.00;;;;;;5051992;28;20018;-71
2023/03/19 20:49:17;;;;;;;;;;;24.00;85.90;;;;;;5040060;28;19909;-72
2023/03/19 20:51:43;;;;;;;;;;;24.00;85.70;;;;;;5058079;28;20301;-71
2023/03/19 20:54:10;;;;;;;;;;;24.00;85.80;;;;;;5058940;28;19913;-70
2023/03/19 20:56:37;;;;;;;;;;;24.00;85.20;;;;;;5056885;28;19919;-70
2023/03/19 20:59:03;;;;;;;;;;;24.00;85.10;;;;;;5042815;28;19913;-70
2023/03/19 21:01:31;;;;;;;;;;;24.00;85.10;;;;;;5039625;28;19913;-69
2023/03/19 21:03:57;;;;;;;;;;;24.00;85.50;;;;;;5054851;28;20553;-70
2023/03/19 21:06:24;;;;;;;;;;;24.00;85.70;;;;;;5077421;28;19916;-70
2023/03/19 21:08:53;;;;;;;;;;;23.90;85.70;;;;;;5038074;28;19909;-70
2023/03/19 21:11:20;;;;;;;;;;;24.00;85.60;;;;;;5038464;28;19916;-70
2023/03/19 21:13:51;;;;;;;;;;;24.00;85.90;;;;;;5057133;28;19909;-71
2023/03/19 21:16:18;;;;;;;;;;;23.90;85.70;;;;;;5057773;28;20351;-70
2023/03/19 21:18:45;;;;;;;;;;;23.90;85.30;;;;;;5033804;28;20395;-70
2023/03/19 21:21:12;;;;;;;;;;;23.80;85.00;;;;;;5059364;28;20244;-70
2023/03/19 21:23:39;;;;;;;;;;;23.80;84.90;;;;;;5038788;28;20383;-69
2023/03/19 21:26:15;;;;;;;;;;;23.80;84.80;;;;;;5040350;28;19908;-70
2023/03/19 21:28:42;;;;;;;;;;;23.80;84.20;;;;;;5056467;28;19908;-70
2023/03/19 21:31:19;;;;;;;;;;;23.80;83.90;;;;;;5058245;28;19921;-71
2023/03/19 21:33:48;;;;;;;;;;;23.80;84.20;;;;;;5057197;28;19913;-72
2023/03/19 21:36:15;;;;;;;;;;;23.80;83.10;;;;;;5057634;28;19937;-70
2023/03/19 21:38:42;;;;;;;;;;;23.80;83.50;;;;;;5055318;28;20291;-70
